Time;durP1;ratioP1;P1;durP2;ratioP2;P2;SDS_P1;SDS_P2;PMS_P1;PMS_P2;Temp;Humidity;BMP_temperature;BMP_pressure;BME280_temperature;BME280_humidity;BME280_pressure;Samples;Min_cycle;Max_cycle;Signal;HPM_P1;HPM_P2
2023/08/22 00:01:41;;;;;;;17.42;14.35;;;;;;;;;;4935195;29;20518;-82
2023/08/22 00:04:08;;;;;;;19.27;14.65;;;;;;;;;;4934763;29;20104;-82
2023/08/22 00:06:35;;;;;;;19.15;14.88;;;;;;;;;;4934411;29;20496;-82
2023/08/22 00:09:03;;;;;;;19.27;15.25;;;;;;;;;;4933566;29;20045;-81
2023/08/22 00:11:30;;;;;;;19.08;15.90;;;;;;;;;;4933859;29;20464;-81
2023/08/22 00:13:58;;;;;;;17.70;14.63;;;;;;;;;;4933634;29;20499;-82
2023/08/22 00:16:25;;;;;;;21.95;14.98;;;;;;;;;;4933795;29;20507;-82
2023/08/22 00:18:53;;;;;;;19.80;16.30;;;;;;;;;;4932443;29;20057;-81
2023/08/22 00:21:20;;;;;;;21.45;15.30;;;;;;;;;;4932280;29;20052;-82
2023/08/22 00:23:47;;;;;;;24.30;16.00;;;;;;;;;;4933105;29;20119;-82
2023/08/22 00:26:14;;;;;;;16.15;14.35;;;;;;;;;;4932326;29;20108;-81
2023/08/22 00:28:42;;;;;;;21.00;16.25;;;;;;;;;;4902189;29;20405;-82
2023/08/22 00:31:09;;;;;;;19.77;15.95;;;;;;;;;;4932157;29;20052;-81
2023/08/22 00:33:36;;;;;;;23.10;17.63;;;;;;;;;;4932020;29;20428;-82
2023/08/22 00:36:04;;;;;;;21.55;16.25;;;;;;;;;;4932622;29;20061;-81
2023/08/22 00:38:31;;;;;;;21.58;15.70;;;;;;;;;;4931289;29;20080;-81
2023/08/22 00:40:58;;;;;;;20.42;16.08;;;;;;;;;;4931092;29;20143;-81
2023/08/22 00:43:25;;;;;;;22.05;14.65;;;;;;;;;;4929751;29;20059;-81
2023/08/22 00:45:52;;;;;;;18.92;15.43;;;;;;;;;;4928878;29;20045;-81
2023/08/22 00:48:20;;;;;;;20.88;15.68;;;;;;;;;;4928960;29;20456;-81
2023/08/22 00:50:47;;;;;;;19.08;15.38;;;;;;;;;;4928626;29;20116;-81
2023/08/22 00:53:14;;;;;;;20.77;17.10;;;;;;;;;;4928946;29;20593;-80
2023/08/22 00:55:41;;;;;;;19.25;14.75;;;;;;;;;;4898359;29;20397;-80
2023/08/22 00:58:10;;;;;;;19.92;15.85;;;;;;;;;;4929225;29;20055;-81
2023/08/22 01:00:38;;;;;;;19.73;14.80;;;;;;;;;;4928504;29;20465;-81
2023/08/22 01:03:05;;;;;;;17.50;14.88;;;;;;;;;;4898563;29;20498;-80
2023/08/22 01:05:38;;;;;;;20.02;15.82;;;;;;;;;;4928665;29;20508;-80
2023/08/22 01:08:10;;;;;;;18.85;14.75;;;;;;;;;;4898321;29;20104;-81
2023/08/22 01:10:41;;;;;;;21.80;15.25;;;;;;;;;;4928444;29;20100;-81
2023/08/22 01:13:10;;;;;;;18.60;15.50;;;;;;;;;;4928742;29;20084;-81
2023/08/22 01:15:38;;;;;;;24.83;15.27;;;;;;;;;;4928280;29;20052;-81
2023/08/22 01:18:05;;;;;;;19.85;16.42;;;;;;;;;;4952272;23;20079;-86
2023/08/22 01:20:34;;;;;;;16.67;14.95;;;;;;;;;;4935544;29;20119;-86
2023/08/22 01:23:01;;;;;;;23.23;16.30;;;;;;;;;;4920222;29;20052;-86
2023/08/22 01:25:29;;;;;;;20.33;16.25;;;;;;;;;;4934708;29;20056;-86
2023/08/22 01:27:56;;;;;;;19.13;15.18;;;;;;;;;;4920073;29;20451;-87
2023/08/22 01:30:33;;;;;;;20.60;16.25;;;;;;;;;;4920186;29;20191;-88
2023/08/22 01:33:03;;;;;;;18.45;16.25;;;;;;;;;;4919240;29;20052;-87
2023/08/22 01:35:31;;;;;;;19.08;15.05;;;;;;;;;;4918824;29;20056;-86
2023/08/22 01:37:59;;;;;;;23.13;16.05;;;;;;;;;;4919948;29;20463;-87
2023/08/22 01:40:26;;;;;;;20.17;16.38;;;;;;;;;;4920052;29;20048;-87
2023/08/22 01:42:56;;;;;;;24.23;18.30;;;;;;;;;;4919886;29;20048;-87
2023/08/22 01:45:23;;;;;;;22.48;18.40;;;;;;;;;;4918636;29;20052;-86
2023/08/22 01:47:50;;;;;;;26.25;18.67;;;;;;;;;;4918648;29;20063;-87
2023/08/22 01:50:18;;;;;;;25.65;18.20;;;;;;;;;;4918643;29;20052;-86
2023/08/22 01:52:45;;;;;;;24.17;18.98;;;;;;;;;;4918387;29;20507;-86
2023/08/22 01:55:14;;;;;;;26.98;18.45;;;;;;;;;;4919645;29;20099;-87
2023/08/22 01:57:41;;;;;;;28.40;20.17;;;;;;;;;;4918467;29;20127;-86
2023/08/22 02:00:09;;;;;;;28.50;20.10;;;;;;;;;;4918434;29;20500;-86
2023/08/22 02:02:36;;;;;;;28.67;19.83;;;;;;;;;;4918093;29;20056;-86
2023/08/22 02:05:04;;;;;;;19.35;17.33;;;;;;;;;;4918353;29;20070;-86
2023/08/22 02:07:32;;;;;;;30.13;19.08;;;;;;;;;;4917903;29;20127;-86
2023/08/22 02:10:00;;;;;;;26.65;19.58;;;;;;;;;;4918007;29;20155;-86
2023/08/22 02:12:27;;;;;;;24.38;18.67;;;;;;;;;;4918086;29;20563;-87
2023/08/22 02:14:54;;;;;;;20.05;16.63;;;;;;;;;;4918245;29;20056;-86
2023/08/22 02:17:22;;;;;;;26.25;18.42;;;;;;;;;;4917678;29;20103;-86
2023/08/22 02:19:49;;;;;;;28.02;19.55;;;;;;;;;;4917808;29;20120;-86
2023/08/22 02:22:16;;;;;;;22.00;16.73;;;;;;;;;;4917607;29;20522;-87
2023/08/22 02:24:43;;;;;;;27.05;18.50;;;;;;;;;;4917979;29;20127;-86
2023/08/22 02:27:12;;;;;;;23.05;17.35;;;;;;;;;;4917397;29;20534;-86
2023/08/22 02:29:39;;;;;;;19.67;15.68;;;;;;;;;;4917505;29;20056;-86
2023/08/22 02:32:07;;;;;;;27.38;18.25;;;;;;;;;;4918609;29;20504;-85
2023/08/22 02:34:34;;;;;;;20.30;16.38;;;;;;;;;;4917527;29;20048;-86
2023/08/22 02:37:02;;;;;;;22.17;16.25;;;;;;;;;;4917647;29;20051;-86
2023/08/22 02:39:30;;;;;;;20.60;18.27;;;;;;;;;;4917678;29;20101;-86
2023/08/22 02:41:57;;;;;;;21.92;17.50;;;;;;;;;;4918819;29;20111;-86
2023/08/22 02:44:24;;;;;;;21.25;15.13;;;;;;;;;;4917606;29;20086;-86
2023/08/22 02:46:52;;;;;;;18.95;15.77;;;;;;;;;;4917414;29;20108;-86
2023/08/22 02:49:19;;;;;;;20.52;15.18;;;;;;;;;;4917287;29;20055;-86
2023/08/22 02:51:46;;;;;;;19.80;15.40;;;;;;;;;;4918563;29;20131;-86
2023/08/22 02:54:13;;;;;;;19.15;15.10;;;;;;;;;;4917544;29;20047;-86
2023/08/22 02:56:41;;;;;;;24.10;16.02;;;;;;;;;;4917278;29;20131;-86
2023/08/22 02:59:08;;;;;;;23.35;16.27;;;;;;;;;;4917270;29;20052;-86
2023/08/22 03:01:35;;;;;;;25.95;17.02;;;;;;;;;;4916944;29;20079;-86
2023/08/22 03:04:02;;;;;;;24.98;17.40;;;;;;;;;;4918337;29;20571;-86
2023/08/22 03:06:30;;;;;;;24.92;18.42;;;;;;;;;;4916872;29;20131;-87
2023/08/22 03:08:57;;;;;;;18.92;15.80;;;;;;;;;;4917811;29;20116;-86
2023/08/22 03:11:24;;;;;;;21.08;16.10;;;;;;;;;;4917233;29;20060;-86
2023/08/22 03:13:52;;;;;;;25.77;17.90;;;;;;;;;;4917494;29;20044;-86
2023/08/22 03:16:19;;;;;;;22.80;16.67;;;;;;;;;;4917556;29;20052;-86
2023/08/22 03:18:47;;;;;;;22.95;17.00;;;;;;;;;;4916667;29;20083;-86
2023/08/22 03:21:14;;;;;;;20.00;17.23;;;;;;;;;;4918738;29;20515;-86
2023/08/22 03:23:42;;;;;;;22.20;17.40;;;;;;;;;;4917663;29;20084;-86
2023/08/22 03:26:11;;;;;;;26.00;18.92;;;;;;;;;;4917274;29;20056;-86
2023/08/22 03:28:38;;;;;;;20.85;16.58;;;;;;;;;;4917119;29;20111;-86
2023/08/22 03:31:05;;;;;;;24.63;18.20;;;;;;;;;;4918541;29;20391;-86
2023/08/22 03:33:33;;;;;;;27.85;20.00;;;;;;;;;;4916726;29;20103;-86
2023/08/22 03:36:01;;;;;;;19.75;17.73;;;;;;;;;;4916871;29;20117;-87
2023/08/22 03:38:29;;;;;;;30.17;21.17;;;;;;;;;;4916884;29;20530;-86
2023/08/22 03:40:56;;;;;;;25.65;20.85;;;;;;;;;;4927294;29;20052;-86
2023/08/22 03:43:24;;;;;;;30.75;21.80;;;;;;;;;;4939999;29;20052;-87
2023/08/22 03:45:51;;;;;;;24.13;19.08;;;;;;;;;;4939549;28;20044;-86
2023/08/22 03:48:18;;;;;;;20.98;17.73;;;;;;;;;;4921406;29;20044;-86
2023/08/22 03:50:46;;;;;;;21.80;18.85;;;;;;;;;;4920721;29;20052;-86
2023/08/22 03:53:13;;;;;;;24.65;19.02;;;;;;;;;;4920295;29;20044;-86
2023/08/22 03:55:40;;;;;;;25.50;20.25;;;;;;;;;;4920479;29;20075;-86
2023/08/22 03:58:08;;;;;;;24.33;19.58;;;;;;;;;;4918781;29;20067;-87
2023/08/22 04:00:35;;;;;;;27.77;20.98;;;;;;;;;;4918903;29;20052;-87
2023/08/22 04:03:03;;;;;;;31.65;22.48;;;;;;;;;;4918733;29;20135;-87
2023/08/22 04:05:31;;;;;;;36.33;21.13;;;;;;;;;;4919464;29;20508;-86
2023/08/22 04:07:58;;;;;;;24.88;19.67;;;;;;;;;;4918453;29;20052;-86
2023/08/22 04:10:25;;;;;;;28.23;19.35;;;;;;;;;;4917822;29;20132;-86
2023/08/22 04:12:53;;;;;;;26.17;19.17;;;;;;;;;;4919255;29;20052;-86
2023/08/22 04:15:20;;;;;;;27.00;19.63;;;;;;;;;;4917727;29;20495;-86
2023/08/22 04:17:47;;;;;;;25.50;20.88;;;;;;;;;;4916944;29;20064;-86
2023/08/22 04:20:17;;;;;;;26.48;19.98;;;;;;;;;;4919954;29;20499;-86
2023/08/22 04:22:45;;;;;;;26.02;19.83;;;;;;;;;;4918068;29;20056;-86
2023/08/22 04:25:12;;;;;;;33.05;22.80;;;;;;;;;;4919035;29;20055;-86
2023/08/22 04:27:40;;;;;;;33.15;21.83;;;;;;;;;;4917332;29;20416;-86
2023/08/22 04:30:09;;;;;;;31.08;22.33;;;;;;;;;;4917248;29;20056;-86
2023/08/22 04:32:36;;;;;;;34.22;22.75;;;;;;;;;;4917949;29;20500;-86
2023/08/22 04:35:04;;;;;;;31.08;23.13;;;;;;;;;;4918688;29;20103;-86
2023/08/22 04:37:31;;;;;;;31.25;21.73;;;;;;;;;;4918988;29;20052;-86
2023/08/22 04:39:59;;;;;;;36.45;23.25;;;;;;;;;;4919489;29;20136;-86
2023/08/22 04:42:26;;;;;;;30.83;21.23;;;;;;;;;;4919836;29;20052;-85
2023/08/22 04:44:53;;;;;;;34.92;27.27;;;;;;;;;;4917304;29;20055;-85
2023/08/22 04:47:20;;;;;;;41.75;27.65;;;;;;;;;;4917879;29;20062;-85
2023/08/22 04:49:48;;;;;;;31.40;24.70;;;;;;;;;;4918483;29;20146;-86
2023/08/22 04:52:15;;;;;;;31.98;24.45;;;;;;;;;;4915556;29;20539;-86
2023/08/22 04:54:42;;;;;;;31.70;23.67;;;;;;;;;;4915306;29;20055;-86
2023/08/22 04:57:10;;;;;;;33.50;24.55;;;;;;;;;;4915653;29;20467;-86
2023/08/22 04:59:37;;;;;;;34.58;24.25;;;;;;;;;;4916780;29;20058;-85
2023/08/22 05:02:05;;;;;;;32.88;23.90;;;;;;;;;;4916023;29;20044;-85
2023/08/22 05:04:32;;;;;;;45.13;28.70;;;;;;;;;;4915911;29;20056;-85
2023/08/22 05:06:59;;;;;;;38.03;28.80;;;;;;;;;;4915711;29;20056;-86
2023/08/22 05:09:27;;;;;;;52.75;36.33;;;;;;;;;;4915573;29;20059;-86
2023/08/22 05:11:54;;;;;;;37.63;28.90;;;;;;;;;;4915626;29;20051;-86
2023/08/22 05:14:21;;;;;;;32.85;25.15;;;;;;;;;;4915660;29;20052;-86
2023/08/22 05:16:51;;;;;;;40.55;29.75;;;;;;;;;;4916971;29;20047;-85
2023/08/22 05:19:18;;;;;;;30.80;27.42;;;;;;;;;;4915009;29;20112;-86
2023/08/22 05:21:46;;;;;;;41.30;31.55;;;;;;;;;;4915342;29;20464;-85
2023/08/22 05:24:13;;;;;;;30.73;25.00;;;;;;;;;;4915572;29;20059;-85
2023/08/22 05:26:41;;;;;;;34.30;26.73;;;;;;;;;;4915221;29;20056;-86
2023/08/22 05:29:09;;;;;;;39.80;32.33;;;;;;;;;;4916483;29;20064;-85
2023/08/22 05:31:36;;;;;;;24.75;20.90;;;;;;;;;;4915278;29;20056;-86
2023/08/22 05:34:03;;;;;;;25.58;18.58;;;;;;;;;;4916175;29;20099;-86
2023/08/22 05:36:30;;;;;;;19.55;17.55;;;;;;;;;;4915040;29;20048;-87
2023/08/22 05:38:58;;;;;;;16.70;14.73;;;;;;;;;;4915125;29;20056;-85
2023/08/22 05:41:25;;;;;;;47.33;32.75;;;;;;;;;;4914945;29;20075;-85
2023/08/22 05:43:52;;;;;;;62.17;39.72;;;;;;;;;;4914916;29;20104;-86
2023/08/22 05:46:20;;;;;;;24.42;18.77;;;;;;;;;;4914468;29;20056;-86
2023/08/22 05:48:47;;;;;;;25.20;18.55;;;;;;;;;;4914988;29;20064;-87
2023/08/22 05:51:14;;;;;;;38.45;25.65;;;;;;;;;;4914895;29;20111;-86
2023/08/22 05:53:42;;;;;;;25.85;17.63;;;;;;;;;;4914755;29;20075;-86
2023/08/22 05:56:09;;;;;;;18.42;12.45;;;;;;;;;;4914700;29;20135;-86
2023/08/22 05:58:36;;;;;;;18.95;11.55;;;;;;;;;;4914766;29;20120;-86
2023/08/22 06:01:10;;;;;;;15.50;9.85;;;;;;;;;;4914882;29;20059;-86
2023/08/22 06:03:38;;;;;;;24.90;16.05;;;;;;;;;;4916100;29;20104;-85
2023/08/22 06:06:06;;;;;;;24.70;21.10;;;;;;;;;;4917726;29;20534;-86
2023/08/22 06:08:33;;;;;;;13.68;9.02;;;;;;;;;;4918543;29;20052;-85
2023/08/22 06:11:00;;;;;;;12.80;9.52;;;;;;;;;;4919749;29;20052;-85
2023/08/22 06:13:28;;;;;;;14.70;11.73;;;;;;;;;;4919271;29;20576;-87
2023/08/22 06:15:57;;;;;;;13.75;9.60;;;;;;;;;;4918974;29;20244;-86
2023/08/22 06:18:24;;;;;;;11.85;7.85;;;;;;;;;;4924317;29;20059;-86
2023/08/22 06:20:51;;;;;;;10.85;7.53;;;;;;;;;;4918260;29;20100;-85
2023/08/22 06:23:19;;;;;;;9.57;7.40;;;;;;;;;;4917787;29;20087;-86
2023/08/22 06:25:49;;;;;;;10.32;7.38;;;;;;;;;;4917654;29;20056;-87
2023/08/22 06:28:16;;;;;;;7.80;7.05;;;;;;;;;;4918167;29;20056;-86
2023/08/22 06:30:44;;;;;;;10.32;7.45;;;;;;;;;;4918100;29;20059;-86
2023/08/22 06:33:11;;;;;;;9.15;6.80;;;;;;;;;;4919153;29;20488;-86
2023/08/22 06:35:38;;;;;;;8.35;6.30;;;;;;;;;;4917793;29;20066;-86
2023/08/22 06:38:05;;;;;;;7.32;6.65;;;;;;;;;;4918165;29;20052;-86
2023/08/22 06:40:36;;;;;;;16.63;6.70;;;;;;;;;;4917491;29;20048;-88
2023/08/22 06:43:03;;;;;;;11.02;6.72;;;;;;;;;;4917759;29;20067;-86
2023/08/22 06:45:31;;;;;;;7.43;6.30;;;;;;;;;;4917307;29;20056;-86
2023/08/22 06:47:58;;;;;;;8.25;6.20;;;;;;;;;;4917568;29;20134;-86
2023/08/22 06:50:29;;;;;;;7.50;6.70;;;;;;;;;;4917451;29;20076;-87
2023/08/22 06:52:57;;;;;;;6.45;5.78;;;;;;;;;;4918448;29;20052;-87
2023/08/22 06:55:24;;;;;;;6.03;5.45;;;;;;;;;;4917314;29;20419;-87
2023/08/22 06:57:51;;;;;;;8.25;6.40;;;;;;;;;;4917276;29;20044;-87
2023/08/22 07:00:19;;;;;;;6.50;6.00;;;;;;;;;;4917326;29;20139;-86
2023/08/22 07:02:47;;;;;;;11.07;6.40;;;;;;;;;;4917364;29;20079;-86
2023/08/22 07:05:15;;;;;;;12.35;6.65;;;;;;;;;;4917116;29;20491;-86
2023/08/22 07:07:43;;;;;;;10.70;6.22;;;;;;;;;;4916801;29;20071;-87
2023/08/22 07:10:11;;;;;;;12.52;6.90;;;;;;;;;;4916897;29;20060;-86
2023/08/22 07:12:43;;;;;;;8.93;6.40;;;;;;;;;;4918211;29;20056;-87
2023/08/22 07:15:11;;;;;;;9.93;6.78;;;;;;;;;;4916874;29;20055;-86
2023/08/22 07:17:38;;;;;;;9.82;6.25;;;;;;;;;;4927737;23;20107;-87
2023/08/22 07:20:11;;;;;;;14.23;7.05;;;;;;;;;;4955846;29;20061;-88
2023/08/22 07:22:38;;;;;;;20.13;7.45;;;;;;;;;;4957300;29;20518;-89
2023/08/22 07:25:06;;;;;;;13.95;6.40;;;;;;;;;;4957112;29;20166;-88
2023/08/22 07:27:33;;;;;;;17.02;6.85;;;;;;;;;;4955990;29;20563;-88
2023/08/22 07:30:01;;;;;;;12.23;7.13;;;;;;;;;;4956188;29;20093;-88
2023/08/22 07:32:28;;;;;;;9.23;6.35;;;;;;;;;;4956089;29;20104;-88
2023/08/22 07:34:58;;;;;;;18.70;7.13;;;;;;;;;;4956141;29;20055;-89
2023/08/22 07:37:26;;;;;;;12.63;6.35;;;;;;;;;;4955883;28;20122;-88
2023/08/22 07:39:54;;;;;;;14.40;5.78;;;;;;;;;;4956992;29;20144;-90
2023/08/22 07:42:21;;;;;;;10.18;6.07;;;;;;;;;;4955956;29;20055;-88
2023/08/22 07:44:48;;;;;;;10.52;5.70;;;;;;;;;;4955870;29;20054;-90
2023/08/22 07:47:15;;;;;;;8.20;5.47;;;;;;;;;;4957080;29;20043;-90
2023/08/22 07:49:43;;;;;;;5.55;4.82;;;;;;;;;;4956361;29;20078;-90
2023/08/22 07:52:11;;;;;;;9.00;4.50;;;;;;;;;;4955736;29;20106;-89
2023/08/22 07:54:38;;;;;;;8.70;4.57;;;;;;;;;;4956641;29;20490;-91
2023/08/22 07:57:05;;;;;;;5.40;4.80;;;;;;;;;;4955655;29;20543;-92
2023/08/22 07:59:45;;;;;;;16.27;4.80;;;;;;;;;;4957509;29;20502;-90
2023/08/22 08:02:13;;;;;;;9.57;4.28;;;;;;;;;;4958153;29;20075;-91
2023/08/22 08:04:40;;;;;;;8.25;4.13;;;;;;;;;;4956427;29;20047;-91
2023/08/22 08:07:07;;;;;;;4.50;3.85;;;;;;;;;;4955515;29;20059;-90
2023/08/22 08:09:35;;;;;;;7.55;3.78;;;;;;;;;;4956613;29;20043;-90
2023/08/22 08:12:03;;;;;;;3.97;3.42;;;;;;;;;;4956742;28;20501;-92
2023/08/22 08:14:31;;;;;;;5.03;3.22;;;;;;;;;;4955288;29;20103;-91
2023/08/22 08:16:58;;;;;;;4.88;2.53;;;;;;;;;;4956258;29;20051;-91
2023/08/22 08:19:26;;;;;;;2.40;2.13;;;;;;;;;;4955923;29;20110;-91
2023/08/22 08:21:54;;;;;;;2.65;2.03;;;;;;;;;;4956483;28;20051;-92
2023/08/22 08:24:21;;;;;;;2.35;1.55;;;;;;;;;;4956156;29;20130;-90
2023/08/22 08:26:48;;;;;;;9.48;2.42;;;;;;;;;;4956458;29;20055;-94
2023/08/22 08:29:18;;;;;;;3.40;1.85;;;;;;;;;;4955045;28;20491;-92
2023/08/22 08:31:47;;;;;;;7.78;2.15;;;;;;;;;;4955957;29;20188;-93
2023/08/22 08:34:14;;;;;;;3.30;1.60;;;;;;;;;;4955996;28;20051;-92
2023/08/22 08:36:42;;;;;;;4.03;1.70;;;;;;;;;;4955318;29;20567;-92
2023/08/22 08:39:09;;;;;;;5.40;1.70;;;;;;;;;;4954932;29;20050;-94
2023/08/22 08:41:40;;;;;;;3.28;1.58;;;;;;;;;;4956103;29;20053;-96
2023/08/22 08:44:08;;;;;;;4.75;1.77;;;;;;;;;;4957221;29;20051;-96
2023/08/22 08:46:35;;;;;;;2.38;1.50;;;;;;;;;;4954970;29;20051;-94
2023/08/22 08:49:04;;;;;;;2.35;1.67;;;;;;;;;;4954883;29;20055;-92
2023/08/22 08:51:35;;;;;;;1.90;1.35;;;;;;;;;;4955128;29;20074;-90
2023/08/22 08:54:04;;;;;;;4.40;1.75;;;;;;;;;;4955044;29;20089;-91
2023/08/22 08:56:31;;;;;;;3.35;1.50;;;;;;;;;;4954686;29;20159;-93
2023/08/22 08:58:59;;;;;;;3.25;1.60;;;;;;;;;;4956191;29;20051;-95
2023/08/22 09:01:26;;;;;;;2.53;1.50;;;;;;;;;;4956697;29;20055;-92
2023/08/22 09:03:54;;;;;;;4.95;1.60;;;;;;;;;;4957077;28;20070;-93
2023/08/22 09:06:21;;;;;;;1.80;1.40;;;;;;;;;;4955918;29;20566;-91
2023/08/22 09:09:05;;;;;;;6.63;1.60;;;;;;;;;;4956037;29;20059;-92
2023/08/22 09:11:33;;;;;;;3.72;1.55;;;;;;;;;;4957961;28;20109;-94
2023/08/22 09:14:00;;;;;;;2.28;1.50;;;;;;;;;;4955837;29;20450;-93
2023/08/22 09:16:28;;;;;;;2.03;1.52;;;;;;;;;;4955937;29;20106;-93
2023/08/22 09:19:02;;;;;;;2.05;1.38;;;;;;;;;;4955420;29;20070;-92
2023/08/22 09:21:30;;;;;;;3.03;1.70;;;;;;;;;;4957769;29;20047;-93
2023/08/22 09:24:10;;;;;;;4.90;1.80;;;;;;;;;;4957064;29;20054;-94
2023/08/22 09:26:38;;;;;;;2.45;1.50;;;;;;;;;;4954426;29;20514;-95
2023/08/22 09:29:05;;;;;;;5.55;1.42;;;;;;;;;;4956377;29;20079;-94
2023/08/22 09:31:34;;;;;;;1.70;1.60;;;;;;;;;;4957862;28;20059;-95
2023/08/22 09:34:07;;;;;;;2.47;1.77;;;;;;;;;;4955480;29;20415;-95
2023/08/22 09:36:35;;;;;;;3.95;1.90;;;;;;;;;;4954771;28;20081;-96
2023/08/22 09:39:03;;;;;;;1.70;1.60;;;;;;;;;;4957327;28;20055;-92
2023/08/22 09:41:30;;;;;;;7.72;1.98;;;;;;;;;;4962236;28;20043;-96
2023/08/22 09:44:03;;;;;;;10.90;2.55;;;;;;;;;;4967694;28;20119;-95
2023/08/22 09:46:30;;;;;;;8.32;2.05;;;;;;;;;;4960228;29;20059;-95
2023/08/22 09:49:00;;;;;;;4.88;1.95;;;;;;;;;;4960724;29;20114;-95
2023/08/22 09:51:28;;;;;;;3.13;1.70;;;;;;;;;;4958317;29;20051;-94
2023/08/22 09:54:03;;;;;;;3.05;1.92;;;;;;;;;;4958513;29;20090;-92
2023/08/22 09:56:33;;;;;;;2.67;1.95;;;;;;;;;;4958147;29;20047;-91
2023/08/22 09:59:04;;;;;;;10.35;2.88;;;;;;;;;;4959623;29;20082;-94
2023/08/22 10:01:33;;;;;;;6.10;2.72;;;;;;;;;;4958815;29;20083;-94
2023/08/22 10:04:05;;;;;;;7.45;2.63;;;;;;;;;;4957799;29;20082;-93
2023/08/22 10:06:34;;;;;;;5.25;2.80;;;;;;;;;;4959008;29;20138;-90
2023/08/22 10:09:13;;;;;;;7.88;3.40;;;;;;;;;;4958967;29;20082;-94
2023/08/22 10:11:51;;;;;;;8.20;2.90;;;;;;;;;;4960785;29;20110;-95
2023/08/22 10:14:23;;;;;;;2.92;2.72;;;;;;;;;;4960143;29;20106;-92
2023/08/22 10:16:55;;;;;;;5.40;3.05;;;;;;;;;;4959157;29;20408;-92
2023/08/22 10:19:24;;;;;;;5.78;2.72;;;;;;;;;;4959844;29;20086;-90
2023/08/22 10:21:55;;;;;;;3.38;2.95;;;;;;;;;;4959696;28;20063;-91
2023/08/22 10:24:30;;;;;;;3.90;2.60;;;;;;;;;;4957851;29;20130;-94
2023/08/22 10:27:02;;;;;;;4.18;2.88;;;;;;;;;;4959424;29;20057;-92
2023/08/22 10:29:35;;;;;;;3.70;2.85;;;;;;;;;;4958429;29;20044;-91
2023/08/22 10:32:02;;;;;;;8.75;3.00;;;;;;;;;;4958581;29;20443;-95
2023/08/22 10:34:39;;;;;;;3.35;2.53;;;;;;;;;;4958993;29;20047;-93
2023/08/22 10:37:12;;;;;;;2.85;2.60;;;;;;;;;;4958517;29;20114;-96
2023/08/22 10:39:39;;;;;;;;;;;;;;;;;;4959041;29;20055;-92
2023/08/22 10:42:07;;;;;;;3.47;2.65;;;;;;;;;;4960545;29;20434;-92
2023/08/22 10:44:37;;;;;;;3.00;2.72;;;;;;;;;;4958585;29;20466;-90
2023/08/22 10:47:05;;;;;;;6.78;2.78;;;;;;;;;;4958601;29;20119;-92
2023/08/22 10:49:33;;;;;;;3.70;2.70;;;;;;;;;;4965446;28;20059;-93
2023/08/22 10:52:08;;;;;;;6.75;2.75;;;;;;;;;;4960734;28;20055;-94
2023/08/22 10:54:54;;;;;;;16.20;3.78;;;;;;;;;;4958043;29;20502;-88
2023/08/22 10:57:25;;;;;;;5.05;2.63;;;;;;;;;;4958201;29;20414;-94
2023/08/22 11:00:22;;;;;;;5.95;3.00;;;;;;;;;;4957690;29;20058;-94
2023/08/22 11:02:50;;;;;;;8.48;3.13;;;;;;;;;;4958727;28;20059;-93
2023/08/22 11:05:18;;;;;;;5.15;2.50;;;;;;;;;;4957301;28;20494;-91
2023/08/22 11:07:46;;;;;;;4.30;3.00;;;;;;;;;;4956747;29;20051;-91
2023/08/22 11:10:16;;;;;;;5.15;2.63;;;;;;;;;;4956871;29;20113;-93
2023/08/22 11:12:46;;;;;;;4.65;2.55;;;;;;;;;;4957039;28;20043;-90
2023/08/22 11:15:15;;;;;;;4.38;2.53;;;;;;;;;;4956711;29;20051;-90
2023/08/22 11:17:43;;;;;;;3.92;2.50;;;;;;;;;;4957183;29;20078;-93
2023/08/22 11:20:11;;;;;;;6.88;2.60;;;;;;;;;;4957633;28;20145;-94
2023/08/22 11:22:40;;;;;;;3.65;2.67;;;;;;;;;;4956345;28;20195;-89
2023/08/22 11:25:07;;;;;;;6.15;2.92;;;;;;;;;;4956541;29;20114;-91
2023/08/22 11:27:41;;;;;;;3.72;2.80;;;;;;;;;;4956563;29;20102;-91
2023/08/22 11:30:09;;;;;;;6.55;2.92;;;;;;;;;;4957105;29;20106;-92
2023/08/22 11:32:38;;;;;;;4.30;3.15;;;;;;;;;;4956644;29;20071;-92
2023/08/22 11:35:07;;;;;;;5.97;2.83;;;;;;;;;;4956019;28;20062;-91
2023/08/22 11:37:36;;;;;;;7.35;2.75;;;;;;;;;;4955979;29;20051;-90
2023/08/22 11:40:09;;;;;;;7.90;3.10;;;;;;;;;;4956624;28;20550;-94
2023/08/22 11:42:38;;;;;;;5.60;2.63;;;;;;;;;;4957255;29;20043;-95
2023/08/22 11:45:05;;;;;;;8.32;2.90;;;;;;;;;;4957175;29;20486;-92
2023/08/22 11:47:36;;;;;;;4.60;2.78;;;;;;;;;;4956467;29;20054;-90
2023/08/22 11:50:03;;;;;;;3.40;2.50;;;;;;;;;;4957742;28;20058;-92
2023/08/22 11:52:31;;;;;;;7.50;2.42;;;;;;;;;;4956753;29;20083;-94
2023/08/22 11:55:02;;;;;;;4.93;2.40;;;;;;;;;;4956841;29;20063;-92
2023/08/22 11:57:29;;;;;;;3.92;2.92;;;;;;;;;;4956148;29;20059;-93
2023/08/22 12:00:04;;;;;;;5.93;3.08;;;;;;;;;;4956103;29;20063;-91
2023/08/22 12:02:31;;;;;;;8.25;3.10;;;;;;;;;;4955672;28;20094;-91
2023/08/22 12:04:59;;;;;;;6.90;2.67;;;;;;;;;;4956135;29;20087;-93
2023/08/22 12:07:26;;;;;;;5.03;2.45;;;;;;;;;;4955726;29;20506;-93
2023/08/22 12:10:01;;;;;;;10.18;3.22;;;;;;;;;;4955689;29;20051;-92
2023/08/22 12:12:29;;;;;;;3.33;2.38;;;;;;;;;;4956617;29;20051;-92
2023/08/22 12:14:56;;;;;;;5.03;2.45;;;;;;;;;;4955937;29;20046;-95
2023/08/22 12:17:23;;;;;;;4.63;2.83;;;;;;;;;;4957452;29;20416;-94
2023/08/22 12:19:51;;;;;;;3.42;2.30;;;;;;;;;;4955835;29;20063;-92
2023/08/22 12:22:18;;;;;;;6.93;2.67;;;;;;;;;;4955276;29;20047;-92
2023/08/22 12:24:45;;;;;;;2.92;2.30;;;;;;;;;;4954300;29;20106;-94
2023/08/22 12:27:13;;;;;;;4.85;2.33;;;;;;;;;;4956419;29;20083;-95
2023/08/22 12:29:41;;;;;;;2.83;2.47;;;;;;;;;;4956913;29;20059;-92
2023/08/22 12:32:09;;;;;;;5.13;2.55;;;;;;;;;;4956669;29;20062;-93
2023/08/22 12:34:36;;;;;;;4.45;2.47;;;;;;;;;;4956301;29;20483;-94
2023/08/22 12:37:04;;;;;;;2.72;2.45;;;;;;;;;;4957052;29;20142;-96
2023/08/22 12:39:32;;;;;;;5.85;2.42;;;;;;;;;;4955926;29;20101;-95
2023/08/22 12:41:59;;;;;;;6.95;3.42;;;;;;;;;;4955606;29;20502;-92
2023/08/22 12:44:26;;;;;;;8.85;2.72;;;;;;;;;;4955732;29;20071;-94
2023/08/22 12:46:56;;;;;;;5.70;2.55;;;;;;;;;;4957607;29;20078;-89
2023/08/22 12:49:24;;;;;;;5.60;2.45;;;;;;;;;;4955414;29;20105;-92
2023/08/22 12:51:51;;;;;;;7.47;2.35;;;;;;;;;;4956794;29;20547;-95
2023/08/22 12:54:18;;;;;;;5.30;2.78;;;;;;;;;;4959062;29;20062;-91
2023/08/22 12:56:46;;;;;;;6.95;2.80;;;;;;;;;;4959025;29;20079;-93
2023/08/22 12:59:13;;;;;;;3.72;2.50;;;;;;;;;;4956144;29;20102;-95
2023/08/22 13:01:40;;;;;;;5.57;2.58;;;;;;;;;;4956329;29;20097;-93
2023/08/22 13:04:14;;;;;;;7.20;2.63;;;;;;;;;;4959911;29;20125;-94
2023/08/22 13:06:42;;;;;;;5.70;2.70;;;;;;;;;;4956278;29;20051;-95
2023/08/22 13:09:10;;;;;;;4.80;2.30;;;;;;;;;;4958807;29;20496;-96
2023/08/22 13:11:42;;;;;;;4.43;2.50;;;;;;;;;;4958702;28;20110;-95
2023/08/22 13:14:10;;;;;;;4.60;2.80;;;;;;;;;;4956167;28;20048;-91
2023/08/22 13:16:38;;;;;;;8.38;2.92;;;;;;;;;;4955750;29;20487;-95
2023/08/22 13:19:05;;;;;;;6.68;2.70;;;;;;;;;;4955052;29;20062;-94
2023/08/22 13:21:33;;;;;;;6.28;2.40;;;;;;;;;;4957002;29;20059;-94
2023/08/22 13:24:00;;;;;;;3.97;2.50;;;;;;;;;;4958391;29;20051;-92
2023/08/22 13:26:30;;;;;;;7.15;2.75;;;;;;;;;;4957150;29;20051;-95
2023/08/22 13:28:57;;;;;;;3.88;2.47;;;;;;;;;;4957314;29;20571;-94
2023/08/22 13:31:25;;;;;;;2.40;2.17;;;;;;;;;;4958252;29;20061;-90
2023/08/22 13:33:52;;;;;;;4.53;2.40;;;;;;;;;;4958226;29;20051;-94
2023/08/22 13:36:19;;;;;;;4.85;2.60;;;;;;;;;;4955809;29;20511;-93
2023/08/22 13:38:47;;;;;;;6.28;2.60;;;;;;;;;;4961100;29;20558;-96
2023/08/22 13:41:14;;;;;;;3.83;2.25;;;;;;;;;;4963337;29;20063;-96
2023/08/22 13:43:43;;;;;;;1.98;1.88;;;;;;;;;;4968984;23;20051;-94
2023/08/22 13:46:10;;;;;;;5.10;2.33;;;;;;;;;;4958579;29;20055;-95
2023/08/22 13:48:38;;;;;;;3.35;2.53;;;;;;;;;;4961216;29;20057;-96
2023/08/22 13:51:06;;;;;;;2.83;2.30;;;;;;;;;;4960421;29;20057;-96
2023/08/22 13:53:33;;;;;;;4.30;2.20;;;;;;;;;;4958349;29;20055;-93
2023/08/22 13:56:00;;;;;;;5.00;2.33;;;;;;;;;;4960876;29;20055;-95
2023/08/22 13:58:28;;;;;;;5.60;2.17;;;;;;;;;;4957490;29;20055;-95
2023/08/22 14:00:56;;;;;;;4.70;2.28;;;;;;;;;;4958134;29;20052;-95
2023/08/22 14:03:23;;;;;;;3.55;1.90;;;;;;;;;;4960906;29;20484;-94
2023/08/22 14:05:50;;;;;;;8.73;2.70;;;;;;;;;;4958194;29;20063;-96
2023/08/22 14:08:18;;;;;;;3.17;2.25;;;;;;;;;;4957676;29;20106;-94
2023/08/22 14:10:46;;;;;;;4.65;2.28;;;;;;;;;;4954742;29;20069;-96
2023/08/22 14:13:13;;;;;;;4.82;2.42;;;;;;;;;;4955788;29;20059;-94
2023/08/22 14:15:45;;;;;;;5.72;2.33;;;;;;;;;;4954424;28;20051;-96
2023/08/22 14:18:12;;;;;;;5.45;2.33;;;;;;;;;;4958107;29;20051;-93
2023/08/22 14:20:42;;;;;;;4.53;2.20;;;;;;;;;;4954726;29;20058;-94
2023/08/22 14:23:09;;;;;;;6.10;2.30;;;;;;;;;;4961621;28;20447;-96
2023/08/22 14:25:40;;;;;;;2.25;2.00;;;;;;;;;;4955564;28;20051;-92
2023/08/22 14:28:08;;;;;;;4.43;2.05;;;;;;;;;;4963172;29;20051;-96
2023/08/22 14:30:35;;;;;;;6.15;2.53;;;;;;;;;;4958686;29;20514;-94
2023/08/22 14:33:03;;;;;;;7.70;2.20;;;;;;;;;;4958551;29;20051;-93
2023/08/22 14:35:39;;;;;;;3.10;2.53;;;;;;;;;;4957953;28;20059;-96
2023/08/22 14:38:06;;;;;;;2.60;2.40;;;;;;;;;;4958079;29;20050;-96